Hovedside
METAR-TAF:

METAR-TAF

Lufthavner :

Umeå, Sverige

Umeå lufthavn

breddegrad: 63-48N, lengdegrad: 020-17E, høyde over havet: 7 m

Gjeldene værobservasjon

Denne rapporten ble laget for 34 minutter siden, klokken 06:50 UTC
Vind 6 kt fra Vest-nordvest
Temperatur 7°C
Luftfuktighet 76%
Trykk 999 hPa
Sikt 10 km eller mer
ingen skyer under 1500 m og ingen bygeskyer

METAR: ESNU 210650Z 29006KT CAVOK 07/03 Q0999 R14/09//95

Tid: 09:24 (07:24 UTC)

Varsel

Denne rapporten ble laget for 1 time og 54 minutter siden, klokken 05:30 UTC
Varsel gyldig fra 21. klokken 06 UTC til 21. klokken 15 UTC
Vind 10 kt fra Nordvest
Sikt 10 km eller mer
ingen skyer under 1500 m og ingen bygeskyer

TAF: ESNU 210530Z 2106/2115 32010KT CAVOK

Værobservasjoner og værvarsel for over 4000 flyplasser (METAR- og TAF-rapporter).

Tilgjengelige stasjoner er representert av de røde og gule prikkene på kartet.

Hold musepekeren over prikken for å se navnet på stasjonen.

Klikk så for å se værobservasjoner og -varsler.

For å forandre kartet kan du klikke på den grønne knappen med svart kryss for å zoome inn, på den grønne knappen med strek for å zoome ut, eller på de grønne pilene for å se tilstøtende kart.


METAR-TAF: